sensor_id;sensor_type;location;lat;lon;timestamp;temperature;humidity
5578;DHT22;2811;51.900;10.734;2023-07-13T00:00:49;17.30;99.90
5578;DHT22;2811;51.900;10.734;2023-07-13T00:03:15;17.30;99.90
5578;DHT22;2811;51.900;10.734;2023-07-13T00:05:42;17.10;99.90
5578;DHT22;2811;51.900;10.734;2023-07-13T00:08:09;17.00;99.90
5578;DHT22;2811;51.900;10.734;2023-07-13T00:10:39;17.10;99.90
5578;DHT22;2811;51.900;10.734;2023-07-13T00:13:07;17.10;99.90
5578;DHT22;2811;51.900;10.734;2023-07-13T00:15:35;17.00;99.90
5578;DHT22;2811;51.900;10.734;2023-07-13T00:18:01;17.00;99.90
5578;DHT22;2811;51.900;10.734;2023-07-13T00:20:28;17.00;99.90
5578;DHT22;2811;51.900;10.734;2023-07-13T00:22:55;17.00;99.90
5578;DHT22;2811;51.900;10.734;2023-07-13T00:25:22;17.00;99.90
5578;DHT22;2811;51.900;10.734;2023-07-13T00:27:53;17.00;99.90
5578;DHT22;2811;51.900;10.734;2023-07-13T00:30:23;16.90;99.90
5578;DHT22;2811;51.900;10.734;2023-07-13T00:32:52;16.90;99.90
5578;DHT22;2811;51.900;10.734;2023-07-13T00:35:19;16.90;99.90
5578;DHT22;2811;51.900;10.734;2023-07-13T00:37:45;17.10;99.90
5578;DHT22;2811;51.900;10.734;2023-07-13T00:40:14;17.00;99.90
5578;DHT22;2811;51.900;10.734;2023-07-13T00:42:41;17.10;99.90
5578;DHT22;2811;51.900;10.734;2023-07-13T00:48:18;16.70;99.90
5578;DHT22;2811;51.900;10.734;2023-07-13T00:50:49;16.70;99.90
5578;DHT22;2811;51.900;10.734;2023-07-13T00:53:17;17.00;99.90
5578;DHT22;2811;51.900;10.734;2023-07-13T00:55:45;17.10;99.90
5578;DHT22;2811;51.900;10.734;2023-07-13T00:58:12;17.20;99.90
5578;DHT22;2811;51.900;10.734;2023-07-13T01:00:40;17.20;99.90
5578;DHT22;2811;51.900;10.734;2023-07-13T01:03:06;17.20;99.90
5578;DHT22;2811;51.900;10.734;2023-07-13T01:05:35;17.40;99.90
5578;DHT22;2811;51.900;10.734;2023-07-13T01:08:03;17.30;99.90
5578;DHT22;2811;51.900;10.734;2023-07-13T01:10:31;17.40;99.90
5578;DHT22;2811;51.900;10.734;2023-07-13T01:13:04;17.40;99.90
5578;DHT22;2811;51.900;10.734;2023-07-13T01:15:37;17.40;99.90
5578;DHT22;2811;51.900;10.734;2023-07-13T01:18:05;17.30;99.90
5578;DHT22;2811;51.900;10.734;2023-07-13T01:20:32;17.30;99.90
5578;DHT22;2811;51.900;10.734;2023-07-13T01:23:04;17.40;99.90
5578;DHT22;2811;51.900;10.734;2023-07-13T01:25:32;17.40;99.90
5578;DHT22;2811;51.900;10.734;2023-07-13T01:27:59;17.50;99.90
5578;DHT22;2811;51.900;10.734;2023-07-13T01:30:25;17.60;99.90
5578;DHT22;2811;51.900;10.734;2023-07-13T01:32:52;17.50;99.90
5578;DHT22;2811;51.900;10.734;2023-07-13T01:35:19;17.70;99.90
5578;DHT22;2811;51.900;10.734;2023-07-13T01:37:45;17.70;99.90
5578;DHT22;2811;51.900;10.734;2023-07-13T01:40:13;17.60;99.90
5578;DHT22;2811;51.900;10.734;2023-07-13T01:42:41;17.70;99.90
5578;DHT22;2811;51.900;10.734;2023-07-13T01:45:08;17.70;99.90
5578;DHT22;2811;51.900;10.734;2023-07-13T01:47:35;17.80;99.90
5578;DHT22;2811;51.900;10.734;2023-07-13T01:50:02;17.70;99.90
5578;DHT22;2811;51.900;10.734;2023-07-13T01:52:28;18.20;99.90
5578;DHT22;2811;51.900;10.734;2023-07-13T01:54:55;17.70;99.90
5578;DHT22;2811;51.900;10.734;2023-07-13T01:57:23;17.60;99.90
5578;DHT22;2811;51.900;10.734;2023-07-13T01:59:50;17.50;99.90
5578;DHT22;2811;51.900;10.734;2023-07-13T02:02:16;17.40;99.90
5578;DHT22;2811;51.900;10.734;2023-07-13T02:04:43;17.40;99.90
5578;DHT22;2811;51.900;10.734;2023-07-13T02:07:09;17.60;99.90
5578;DHT22;2811;51.900;10.734;2023-07-13T02:09:36;17.40;99.90
5578;DHT22;2811;51.900;10.734;2023-07-13T02:12:03;17.60;99.90
5578;DHT22;2811;51.900;10.734;2023-07-13T02:14:32;17.50;99.90
5578;DHT22;2811;51.900;10.734;2023-07-13T02:16:58;17.60;99.90
5578;DHT22;2811;51.900;10.734;2023-07-13T02:19:25;17.40;99.90
5578;DHT22;2811;51.900;10.734;2023-07-13T02:21:52;17.40;99.90
5578;DHT22;2811;51.900;10.734;2023-07-13T02:24:18;17.40;99.90
5578;DHT22;2811;51.900;10.734;2023-07-13T02:26:46;17.50;99.90
5578;DHT22;2811;51.900;10.734;2023-07-13T02:29:13;17.50;99.90
5578;DHT22;2811;51.900;10.734;2023-07-13T02:31:41;17.30;99.90
5578;DHT22;2811;51.900;10.734;2023-07-13T02:34:08;17.20;99.90
5578;DHT22;2811;51.900;10.734;2023-07-13T02:36:35;17.10;99.90
5578;DHT22;2811;51.900;10.734;2023-07-13T02:39:03;17.10;99.90
5578;DHT22;2811;51.900;10.734;2023-07-13T02:41:30;17.20;99.90
5578;DHT22;2811;51.900;10.734;2023-07-13T02:43:57;17.00;99.90
5578;DHT22;2811;51.900;10.734;2023-07-13T02:46:29;16.70;99.90
5578;DHT22;2811;51.900;10.734;2023-07-13T02:48:57;16.70;99.90
5578;DHT22;2811;51.900;10.734;2023-07-13T02:51:23;16.60;99.90
5578;DHT22;2811;51.900;10.734;2023-07-13T02:53:50;16.70;99.90
5578;DHT22;2811;51.900;10.734;2023-07-13T02:56:19;16.80;99.90
5578;DHT22;2811;51.900;10.734;2023-07-13T02:58:46;16.80;99.90
5578;DHT22;2811;51.900;10.734;2023-07-13T03:01:12;16.70;99.90
5578;DHT22;2811;51.900;10.734;2023-07-13T03:03:44;16.50;99.90
5578;DHT22;2811;51.900;10.734;2023-07-13T03:06:13;16.40;99.90
5578;DHT22;2811;51.900;10.734;2023-07-13T03:08:40;16.20;99.90
5578;DHT22;2811;51.900;10.734;2023-07-13T03:11:08;16.10;99.90
5578;DHT22;2811;51.900;10.734;2023-07-13T03:13:36;16.10;99.90
5578;DHT22;2811;51.900;10.734;2023-07-13T03:16:04;16.20;99.90
5578;DHT22;2811;51.900;10.734;2023-07-13T03:18:31;16.30;99.90
5578;DHT22;2811;51.900;10.734;2023-07-13T03:20:58;16.40;99.90
5578;DHT22;2811;51.900;10.734;2023-07-13T03:23:26;16.40;99.90
5578;DHT22;2811;51.900;10.734;2023-07-13T03:26:01;16.40;99.90
5578;DHT22;2811;51.900;10.734;2023-07-13T03:28:28;16.40;99.90
5578;DHT22;2811;51.900;10.734;2023-07-13T03:30:59;16.30;99.90
5578;DHT22;2811;51.900;10.734;2023-07-13T03:33:26;16.20;99.90
5578;DHT22;2811;51.900;10.734;2023-07-13T03:35:53;16.30;99.90
5578;DHT22;2811;51.900;10.734;2023-07-13T03:38:19;16.30;99.90
5578;DHT22;2811;51.900;10.734;2023-07-13T03:40:48;16.40;99.90
5578;DHT22;2811;51.900;10.734;2023-07-13T03:43:14;16.30;99.90
5578;DHT22;2811;51.900;10.734;2023-07-13T03:45:41;16.30;99.90
5578;DHT22;2811;51.900;10.734;2023-07-13T03:48:08;16.20;99.90
5578;DHT22;2811;51.900;10.734;2023-07-13T03:50:35;16.10;99.90
5578;DHT22;2811;51.900;10.734;2023-07-13T03:53:02;16.20;99.90
5578;DHT22;2811;51.900;10.734;2023-07-13T03:55:28;16.30;99.90
5578;DHT22;2811;51.900;10.734;2023-07-13T03:58:00;16.60;99.90
5578;DHT22;2811;51.900;10.734;2023-07-13T04:00:27;16.70;99.90
5578;DHT22;2811;51.900;10.734;2023-07-13T04:02:53;16.70;99.90
5578;DHT22;2811;51.900;10.734;2023-07-13T04:05:20;16.90;99.90
5578;DHT22;2811;51.900;10.734;2023-07-13T04:07:47;17.20;99.90
5578;DHT22;2811;51.900;10.734;2023-07-13T04:10:13;17.20;99.90
5578;DHT22;2811;51.900;10.734;2023-07-13T04:12:40;17.30;99.90
5578;DHT22;2811;51.900;10.734;2023-07-13T04:15:09;17.40;99.90
5578;DHT22;2811;51.900;10.734;2023-07-13T04:17:35;17.40;99.90
5578;DHT22;2811;51.900;10.734;2023-07-13T04:20:02;17.50;99.90
5578;DHT22;2811;51.900;10.734;2023-07-13T04:22:29;17.60;99.90
5578;DHT22;2811;51.900;10.734;2023-07-13T04:24:56;17.60;99.90
5578;DHT22;2811;51.900;10.734;2023-07-13T04:27:23;17.60;99.90
5578;DHT22;2811;51.900;10.734;2023-07-13T04:29:49;17.70;99.90
5578;DHT22;2811;51.900;10.734;2023-07-13T04:32:18;17.60;99.90
5578;DHT22;2811;51.900;10.734;2023-07-13T04:34:45;17.60;99.90
5578;DHT22;2811;51.900;10.734;2023-07-13T04:37:11;17.80;99.90
5578;DHT22;2811;51.900;10.734;2023-07-13T04:39:38;18.10;99.90
5578;DHT22;2811;51.900;10.734;2023-07-13T04:42:05;18.10;99.90
5578;DHT22;2811;51.900;10.734;2023-07-13T04:44:32;18.20;99.90
5578;DHT22;2811;51.900;10.734;2023-07-13T04:46:58;18.20;99.90
5578;DHT22;2811;51.900;10.734;2023-07-13T04:49:26;18.10;99.90
5578;DHT22;2811;51.900;10.734;2023-07-13T04:51:53;18.10;99.90
5578;DHT22;2811;51.900;10.734;2023-07-13T04:54:20;18.10;99.90
5578;DHT22;2811;51.900;10.734;2023-07-13T04:56:47;18.20;99.90
5578;DHT22;2811;51.900;10.734;2023-07-13T04:59:13;18.70;99.90
5578;DHT22;2811;51.900;10.734;2023-07-13T05:01:40;19.20;99.90
5578;DHT22;2811;51.900;10.734;2023-07-13T05:04:07;19.50;99.90
5578;DHT22;2811;51.900;10.734;2023-07-13T05:06:35;20.00;99.90
5578;DHT22;2811;51.900;10.734;2023-07-13T05:09:01;20.60;99.90
5578;DHT22;2811;51.900;10.734;2023-07-13T05:11:28;21.20;99.90
5578;DHT22;2811;51.900;10.734;2023-07-13T05:13:55;21.50;99.90
5578;DHT22;2811;51.900;10.734;2023-07-13T05:16:22;21.40;99.90
5578;DHT22;2811;51.900;10.734;2023-07-13T05:18:48;21.60;99.90
5578;DHT22;2811;51.900;10.734;2023-07-13T05:21:15;21.60;99.90
5578;DHT22;2811;51.900;10.734;2023-07-13T05:23:43;21.50;99.90
5578;DHT22;2811;51.900;10.734;2023-07-13T05:26:10;21.50;99.90
5578;DHT22;2811;51.900;10.734;2023-07-13T05:28:37;21.60;99.90
5578;DHT22;2811;51.900;10.734;2023-07-13T05:31:05;22.00;99.90
5578;DHT22;2811;51.900;10.734;2023-07-13T05:33:31;21.90;99.90
5578;DHT22;2811;51.900;10.734;2023-07-13T05:35:58;21.60;99.90
5578;DHT22;2811;51.900;10.734;2023-07-13T05:38:25;21.50;99.90
5578;DHT22;2811;51.900;10.734;2023-07-13T05:40:55;21.50;99.90
5578;DHT22;2811;51.900;10.734;2023-07-13T05:43:22;21.20;99.90
5578;DHT22;2811;51.900;10.734;2023-07-13T05:45:52;21.20;99.90
5578;DHT22;2811;51.900;10.734;2023-07-13T05:48:19;21.20;99.90
5578;DHT22;2811;51.900;10.734;2023-07-13T05:50:46;21.50;99.90
5578;DHT22;2811;51.900;10.734;2023-07-13T05:53:13;21.80;99.90
5578;DHT22;2811;51.900;10.734;2023-07-13T05:55:41;21.80;99.90
5578;DHT22;2811;51.900;10.734;2023-07-13T05:58:12;21.80;99.90
5578;DHT22;2811;51.900;10.734;2023-07-13T06:00:39;22.20;99.90
5578;DHT22;2811;51.900;10.734;2023-07-13T06:03:06;22.50;99.90
5578;DHT22;2811;51.900;10.734;2023-07-13T06:05:33;22.70;99.90
5578;DHT22;2811;51.900;10.734;2023-07-13T06:08:01;22.70;99.90
5578;DHT22;2811;51.900;10.734;2023-07-13T06:10:28;22.90;99.90
5578;DHT22;2811;51.900;10.734;2023-07-13T06:12:55;22.90;99.90
5578;DHT22;2811;51.900;10.734;2023-07-13T06:15:23;23.20;99.90
5578;DHT22;2811;51.900;10.734;2023-07-13T06:17:49;23.20;99.90
5578;DHT22;2811;51.900;10.734;2023-07-13T06:20:16;23.20;99.90
5578;DHT22;2811;51.900;10.734;2023-07-13T06:22:43;22.90;99.90
5578;DHT22;2811;51.900;10.734;2023-07-13T06:25:09;22.60;99.90
5578;DHT22;2811;51.900;10.734;2023-07-13T06:27:36;22.50;99.90
5578;DHT22;2811;51.900;10.734;2023-07-13T06:30:03;22.50;99.90
5578;DHT22;2811;51.900;10.734;2023-07-13T06:32:31;22.50;99.90
5578;DHT22;2811;51.900;10.734;2023-07-13T06:34:58;22.20;99.90
5578;DHT22;2811;51.900;10.734;2023-07-13T06:37:24;22.30;99.90
5578;DHT22;2811;51.900;10.734;2023-07-13T06:39:51;22.70;99.90
5578;DHT22;2811;51.900;10.734;2023-07-13T06:42:18;22.80;99.90
5578;DHT22;2811;51.900;10.734;2023-07-13T06:44:44;22.80;99.90
5578;DHT22;2811;51.900;10.734;2023-07-13T06:47:11;22.60;99.90
5578;DHT22;2811;51.900;10.734;2023-07-13T06:49:39;22.80;99.90
5578;DHT22;2811;51.900;10.734;2023-07-13T06:52:06;22.50;99.90
5578;DHT22;2811;51.900;10.734;2023-07-13T06:54:33;22.80;99.90
5578;DHT22;2811;51.900;10.734;2023-07-13T06:57:00;23.20;99.90
5578;DHT22;2811;51.900;10.734;2023-07-13T06:59:27;23.00;99.90
5578;DHT22;2811;51.900;10.734;2023-07-13T07:01:53;23.30;99.90
5578;DHT22;2811;51.900;10.734;2023-07-13T07:04:20;23.50;99.80
5578;DHT22;2811;51.900;10.734;2023-07-13T07:06:48;23.50;99.30
5578;DHT22;2811;51.900;10.734;2023-07-13T07:09:15;23.40;99.80
5578;DHT22;2811;51.900;10.734;2023-07-13T07:11:42;23.80;99.40
5578;DHT22;2811;51.900;10.734;2023-07-13T07:14:09;24.10;98.70
5578;DHT22;2811;51.900;10.734;2023-07-13T07:16:36;24.20;98.60
5578;DHT22;2811;51.900;10.734;2023-07-13T07:19:02;24.20;97.90
5578;DHT22;2811;51.900;10.734;2023-07-13T07:21:29;24.60;98.10
5578;DHT22;2811;51.900;10.734;2023-07-13T07:23:58;24.10;98.20
5578;DHT22;2811;51.900;10.734;2023-07-13T07:26:25;23.50;99.00
5578;DHT22;2811;51.900;10.734;2023-07-13T07:28:51;23.20;99.90
5578;DHT22;2811;51.900;10.734;2023-07-13T07:31:18;23.10;99.90
5578;DHT22;2811;51.900;10.734;2023-07-13T07:33:45;23.20;99.90
5578;DHT22;2811;51.900;10.734;2023-07-13T07:36:12;23.10;99.80
5578;DHT22;2811;51.900;10.734;2023-07-13T07:38:38;23.50;99.90
5578;DHT22;2811;51.900;10.734;2023-07-13T07:41:06;23.30;99.70
5578;DHT22;2811;51.900;10.734;2023-07-13T07:43:33;23.40;99.70
5578;DHT22;2811;51.900;10.734;2023-07-13T07:46:00;23.70;99.60
5578;DHT22;2811;51.900;10.734;2023-07-13T07:48:26;23.90;98.70
5578;DHT22;2811;51.900;10.734;2023-07-13T07:50:53;24.00;98.80
5578;DHT22;2811;51.900;10.734;2023-07-13T07:53:20;23.50;98.50
5578;DHT22;2811;51.900;10.734;2023-07-13T07:55:46;23.40;99.30
5578;DHT22;2811;51.900;10.734;2023-07-13T07:58:16;23.20;99.80
5578;DHT22;2811;51.900;10.734;2023-07-13T08:00:43;23.10;99.40
5578;DHT22;2811;51.900;10.734;2023-07-13T08:03:09;23.00;99.50
5578;DHT22;2811;51.900;10.734;2023-07-13T08:05:36;23.10;99.90
5578;DHT22;2811;51.900;10.734;2023-07-13T08:08:03;23.50;99.20
5578;DHT22;2811;51.900;10.734;2023-07-13T08:10:30;23.60;99.40
5578;DHT22;2811;51.900;10.734;2023-07-13T08:12:57;23.80;99.00
5578;DHT22;2811;51.900;10.734;2023-07-13T08:15:25;24.00;97.90
5578;DHT22;2811;51.900;10.734;2023-07-13T08:17:51;24.10;98.60
5578;DHT22;2811;51.900;10.734;2023-07-13T08:20:18;24.30;98.10
5578;DHT22;2811;51.900;10.734;2023-07-13T08:22:44;24.30;97.10
5578;DHT22;2811;51.900;10.734;2023-07-13T08:25:11;23.90;96.20
5578;DHT22;2811;51.900;10.734;2023-07-13T08:27:38;23.80;96.80
5578;DHT22;2811;51.900;10.734;2023-07-13T08:30:06;23.80;95.30
5578;DHT22;2811;51.900;10.734;2023-07-13T08:32:36;23.90;95.30
5578;DHT22;2811;51.900;10.734;2023-07-13T08:35:03;24.30;95.10
5578;DHT22;2811;51.900;10.734;2023-07-13T08:37:30;24.40;94.90
5578;DHT22;2811;51.900;10.734;2023-07-13T08:39:57;24.30;95.10
5578;DHT22;2811;51.900;10.734;2023-07-13T08:42:32;24.30;94.90
5578;DHT22;2811;51.900;10.734;2023-07-13T08:45:07;24.40;95.20
5578;DHT22;2811;51.900;10.734;2023-07-13T08:47:43;24.40;94.60
5578;DHT22;2811;51.900;10.734;2023-07-13T08:50:13;24.60;94.50
5578;DHT22;2811;51.900;10.734;2023-07-13T08:52:41;24.90;94.30
5578;DHT22;2811;51.900;10.734;2023-07-13T08:55:14;25.40;93.60
5578;DHT22;2811;51.900;10.734;2023-07-13T08:57:44;25.30;93.30
5578;DHT22;2811;51.900;10.734;2023-07-13T09:00:13;25.10;93.70
5578;DHT22;2811;51.900;10.734;2023-07-13T09:02:46;25.30;93.20
5578;DHT22;2811;51.900;10.734;2023-07-13T09:05:17;25.20;93.30
5578;DHT22;2811;51.900;10.734;2023-07-13T09:08:03;24.80;93.50
5578;DHT22;2811;51.900;10.734;2023-07-13T09:10:34;24.70;94.10
5578;DHT22;2811;51.900;10.734;2023-07-13T09:13:14;24.60;93.70
5578;DHT22;2811;51.900;10.734;2023-07-13T09:15:44;24.20;93.60
5578;DHT22;2811;51.900;10.734;2023-07-13T09:18:16;24.30;93.50
5578;DHT22;2811;51.900;10.734;2023-07-13T09:20:48;24.40;93.70
5578;DHT22;2811;51.900;10.734;2023-07-13T09:23:19;24.50;93.30
5578;DHT22;2811;51.900;10.734;2023-07-13T09:25:48;24.70;93.30
5578;DHT22;2811;51.900;10.734;2023-07-13T09:28:23;24.90;93.70
5578;DHT22;2811;51.900;10.734;2023-07-13T09:30:55;24.70;93.80
5578;DHT22;2811;51.900;10.734;2023-07-13T09:33:23;25.00;93.40
5578;DHT22;2811;51.900;10.734;2023-07-13T09:35:54;25.50;93.60
5578;DHT22;2811;51.900;10.734;2023-07-13T09:38:24;25.80;92.40
5578;DHT22;2811;51.900;10.734;2023-07-13T09:41:01;26.10;91.60
5578;DHT22;2811;51.900;10.734;2023-07-13T09:43:29;25.80;91.20
5578;DHT22;2811;51.900;10.734;2023-07-13T09:45:56;25.70;92.00
5578;DHT22;2811;51.900;10.734;2023-07-13T09:48:24;25.50;91.70
5578;DHT22;2811;51.900;10.734;2023-07-13T09:50:54;25.60;91.70
5578;DHT22;2811;51.900;10.734;2023-07-13T09:53:21;25.60;92.30
5578;DHT22;2811;51.900;10.734;2023-07-13T09:55:49;25.40;91.50
5578;DHT22;2811;51.900;10.734;2023-07-13T09:58:17;24.70;92.60
5578;DHT22;2811;51.900;10.734;2023-07-13T10:00:55;24.60;93.20
5578;DHT22;2811;51.900;10.734;2023-07-13T10:03:26;24.70;93.10
5578;DHT22;2811;51.900;10.734;2023-07-13T10:06:01;24.80;92.50
5578;DHT22;2811;51.900;10.734;2023-07-13T10:08:31;24.10;93.10
5578;DHT22;2811;51.900;10.734;2023-07-13T10:10:59;23.90;93.90
5578;DHT22;2811;51.900;10.734;2023-07-13T10:13:32;23.60;94.10
5578;DHT22;2811;51.900;10.734;2023-07-13T10:16:03;23.50;94.50
5578;DHT22;2811;51.900;10.734;2023-07-13T10:18:39;23.60;94.90
5578;DHT22;2811;51.900;10.734;2023-07-13T10:21:12;23.80;94.90
5578;DHT22;2811;51.900;10.734;2023-07-13T10:23:40;24.30;94.50
5578;DHT22;2811;51.900;10.734;2023-07-13T10:26:12;25.00;93.30
5578;DHT22;2811;51.900;10.734;2023-07-13T10:28:41;25.60;92.30
5578;DHT22;2811;51.900;10.734;2023-07-13T10:31:14;25.90;91.40
5578;DHT22;2811;51.900;10.734;2023-07-13T10:33:43;26.30;90.80
5578;DHT22;2811;51.900;10.734;2023-07-13T10:36:14;26.20;91.30
5578;DHT22;2811;51.900;10.734;2023-07-13T10:38:43;26.00;91.30
5578;DHT22;2811;51.900;10.734;2023-07-13T10:41:15;26.00;91.60
5578;DHT22;2811;51.900;10.734;2023-07-13T10:43:45;25.90;91.80
5578;DHT22;2811;51.900;10.734;2023-07-13T10:46:15;25.70;91.40
5578;DHT22;2811;51.900;10.734;2023-07-13T10:48:46;25.60;91.60
5578;DHT22;2811;51.900;10.734;2023-07-13T10:51:15;25.30;92.70
5578;DHT22;2811;51.900;10.734;2023-07-13T10:53:42;25.10;92.60
5578;DHT22;2811;51.900;10.734;2023-07-13T10:56:22;25.00;92.10
5578;DHT22;2811;51.900;10.734;2023-07-13T10:59:02;25.30;92.30
5578;DHT22;2811;51.900;10.734;2023-07-13T11:01:41;25.80;92.80
5578;DHT22;2811;51.900;10.734;2023-07-13T11:04:22;26.00;91.30
5578;DHT22;2811;51.900;10.734;2023-07-13T11:06:53;26.20;91.00
5578;DHT22;2811;51.900;10.734;2023-07-13T11:09:32;26.10;90.80
5578;DHT22;2811;51.900;10.734;2023-07-13T11:12:00;26.00;90.50
5578;DHT22;2811;51.900;10.734;2023-07-13T11:14:35;25.80;90.30
5578;DHT22;2811;51.900;10.734;2023-07-13T11:17:33;26.00;90.50
5578;DHT22;2811;51.900;10.734;2023-07-13T11:20:23;26.00;90.00
5578;DHT22;2811;51.900;10.734;2023-07-13T11:22:52;25.60;90.00
5578;DHT22;2811;51.900;10.734;2023-07-13T11:25:27;25.20;91.10
5578;DHT22;2811;51.900;10.734;2023-07-13T11:28:13;25.10;91.80
5578;DHT22;2811;51.900;10.734;2023-07-13T11:30:45;24.80;91.90
5578;DHT22;2811;51.900;10.734;2023-07-13T11:33:18;24.90;91.50
5578;DHT22;2811;51.900;10.734;2023-07-13T11:35:57;25.00;91.30
5578;DHT22;2811;51.900;10.734;2023-07-13T11:38:30;24.90;90.90
5578;DHT22;2811;51.900;10.734;2023-07-13T11:41:01;25.30;90.50
5578;DHT22;2811;51.900;10.734;2023-07-13T11:43:29;25.90;90.40
5578;DHT22;2811;51.900;10.734;2023-07-13T11:45:56;26.30;90.40
5578;DHT22;2811;51.900;10.734;2023-07-13T11:48:29;26.40;89.40
5578;DHT22;2811;51.900;10.734;2023-07-13T11:51:01;25.70;90.00
5578;DHT22;2811;51.900;10.734;2023-07-13T11:53:36;25.20;89.50
5578;DHT22;2811;51.900;10.734;2023-07-13T11:56:05;24.70;91.10
5578;DHT22;2811;51.900;10.734;2023-07-13T11:58:32;24.90;91.70
5578;DHT22;2811;51.900;10.734;2023-07-13T12:01:02;25.20;90.80
5578;DHT22;2811;51.900;10.734;2023-07-13T12:03:31;25.70;91.10
5578;DHT22;2811;51.900;10.734;2023-07-13T12:06:02;25.20;91.00
5578;DHT22;2811;51.900;10.734;2023-07-13T12:08:31;25.00;91.20
5578;DHT22;2811;51.900;10.734;2023-07-13T12:11:05;24.60;90.80
5578;DHT22;2811;51.900;10.734;2023-07-13T12:13:37;24.40;91.60
5578;DHT22;2811;51.900;10.734;2023-07-13T12:16:12;24.20;91.50
5578;DHT22;2811;51.900;10.734;2023-07-13T12:18:43;24.20;92.20
5578;DHT22;2811;51.900;10.734;2023-07-13T12:21:17;24.30;92.00
5578;DHT22;2811;51.900;10.734;2023-07-13T12:23:48;24.40;92.40
5578;DHT22;2811;51.900;10.734;2023-07-13T12:26:17;24.40;92.00
5578;DHT22;2811;51.900;10.734;2023-07-13T12:28:47;24.60;92.20
5578;DHT22;2811;51.900;10.734;2023-07-13T12:31:31;24.90;91.50
5578;DHT22;2811;51.900;10.734;2023-07-13T12:34:00;25.00;91.30
5578;DHT22;2811;51.900;10.734;2023-07-13T12:36:33;25.20;91.40
5578;DHT22;2811;51.900;10.734;2023-07-13T12:39:04;25.50;90.70
5578;DHT22;2811;51.900;10.734;2023-07-13T12:41:37;26.00;91.10
5578;DHT22;2811;51.900;10.734;2023-07-13T12:44:07;26.00;89.70
5578;DHT22;2811;51.900;10.734;2023-07-13T12:46:34;26.20;88.80
5578;DHT22;2811;51.900;10.734;2023-07-13T12:49:05;26.10;89.40
5578;DHT22;2811;51.900;10.734;2023-07-13T12:51:36;26.30;87.50
5578;DHT22;2811;51.900;10.734;2023-07-13T12:54:18;26.10;87.20
5578;DHT22;2811;51.900;10.734;2023-07-13T12:56:45;26.10;87.40
5578;DHT22;2811;51.900;10.734;2023-07-13T12:59:18;26.10;87.70
5578;DHT22;2811;51.900;10.734;2023-07-13T13:01:46;26.30;87.50
5578;DHT22;2811;51.900;10.734;2023-07-13T13:04:15;26.90;88.20
5578;DHT22;2811;51.900;10.734;2023-07-13T13:06:48;26.80;86.20
5578;DHT22;2811;51.900;10.734;2023-07-13T13:09:16;26.10;87.30
5578;DHT22;2811;51.900;10.734;2023-07-13T13:11:44;25.90;86.00
5578;DHT22;2811;51.900;10.734;2023-07-13T13:14:10;25.70;88.90
5578;DHT22;2811;51.900;10.734;2023-07-13T13:16:45;26.00;88.50
5578;DHT22;2811;51.900;10.734;2023-07-13T13:19:14;26.40;89.00
5578;DHT22;2811;51.900;10.734;2023-07-13T13:21:43;27.00;88.80
5578;DHT22;2811;51.900;10.734;2023-07-13T13:24:14;27.30;85.20
5578;DHT22;2811;51.900;10.734;2023-07-13T13:26:41;27.30;82.60
5578;DHT22;2811;51.900;10.734;2023-07-13T13:29:12;27.40;83.90
5578;DHT22;2811;51.900;10.734;2023-07-13T13:31:40;27.40;82.50
5578;DHT22;2811;51.900;10.734;2023-07-13T13:34:09;27.50;82.40
5578;DHT22;2811;51.900;10.734;2023-07-13T13:36:36;27.20;82.90
5578;DHT22;2811;51.900;10.734;2023-07-13T13:39:05;27.10;82.80
5578;DHT22;2811;51.900;10.734;2023-07-13T13:41:33;27.00;84.10
5578;DHT22;2811;51.900;10.734;2023-07-13T13:44:00;27.00;84.20
5578;DHT22;2811;51.900;10.734;2023-07-13T13:46:26;26.70;84.80
5578;DHT22;2811;51.900;10.734;2023-07-13T13:48:55;26.60;85.60
5578;DHT22;2811;51.900;10.734;2023-07-13T13:51:23;26.70;84.90
5578;DHT22;2811;51.900;10.734;2023-07-13T13:53:51;26.80;86.00
5578;DHT22;2811;51.900;10.734;2023-07-13T13:56:19;27.00;86.00
5578;DHT22;2811;51.900;10.734;2023-07-13T13:58:47;27.50;85.10
5578;DHT22;2811;51.900;10.734;2023-07-13T14:01:17;27.20;82.50
5578;DHT22;2811;51.900;10.734;2023-07-13T14:03:44;27.20;83.40
5578;DHT22;2811;51.900;10.734;2023-07-13T14:06:14;27.20;82.90
5578;DHT22;2811;51.900;10.734;2023-07-13T14:08:42;27.30;83.30
5578;DHT22;2811;51.900;10.734;2023-07-13T14:11:11;27.40;82.20
5578;DHT22;2811;51.900;10.734;2023-07-13T14:13:42;26.80;82.50
5578;DHT22;2811;51.900;10.734;2023-07-13T14:16:15;26.40;84.40
5578;DHT22;2811;51.900;10.734;2023-07-13T14:18:43;26.40;85.40
5578;DHT22;2811;51.900;10.734;2023-07-13T14:21:12;26.60;84.80
5578;DHT22;2811;51.900;10.734;2023-07-13T14:23:39;26.30;84.50
5578;DHT22;2811;51.900;10.734;2023-07-13T14:26:10;26.40;85.40
5578;DHT22;2811;51.900;10.734;2023-07-13T14:28:40;26.60;85.50
5578;DHT22;2811;51.900;10.734;2023-07-13T14:31:08;26.70;84.90
5578;DHT22;2811;51.900;10.734;2023-07-13T14:33:36;26.30;84.60
5578;DHT22;2811;51.900;10.734;2023-07-13T14:36:16;26.40;86.40
5578;DHT22;2811;51.900;10.734;2023-07-13T14:38:44;26.50;86.70
5578;DHT22;2811;51.900;10.734;2023-07-13T14:41:11;26.10;86.10
5578;DHT22;2811;51.900;10.734;2023-07-13T14:43:37;26.00;87.50
5578;DHT22;2811;51.900;10.734;2023-07-13T14:46:04;26.00;87.30
5578;DHT22;2811;51.900;10.734;2023-07-13T14:48:31;26.10;88.00
5578;DHT22;2811;51.900;10.734;2023-07-13T14:50:59;26.50;87.50
5578;DHT22;2811;51.900;10.734;2023-07-13T14:53:27;26.70;87.10
5578;DHT22;2811;51.900;10.734;2023-07-13T14:55:54;26.90;85.40
5578;DHT22;2811;51.900;10.734;2023-07-13T14:58:21;26.90;84.10
5578;DHT22;2811;51.900;10.734;2023-07-13T15:00:48;27.20;84.30
5578;DHT22;2811;51.900;10.734;2023-07-13T15:03:19;27.30;82.40
5578;DHT22;2811;51.900;10.734;2023-07-13T15:05:47;27.30;82.70
5578;DHT22;2811;51.900;10.734;2023-07-13T15:08:15;27.00;82.80
5578;DHT22;2811;51.900;10.734;2023-07-13T15:10:42;26.30;85.60
5578;DHT22;2811;51.900;10.734;2023-07-13T15:13:16;26.00;86.90
5578;DHT22;2811;51.900;10.734;2023-07-13T15:15:46;25.90;86.90
5578;DHT22;2811;51.900;10.734;2023-07-13T15:18:15;26.50;89.10
5578;DHT22;2811;51.900;10.734;2023-07-13T15:20:44;26.70;88.40
5578;DHT22;2811;51.900;10.734;2023-07-13T15:23:12;26.90;86.10
5578;DHT22;2811;51.900;10.734;2023-07-13T15:25:41;27.00;85.50
5578;DHT22;2811;51.900;10.734;2023-07-13T15:28:09;27.00;86.60
5578;DHT22;2811;51.900;10.734;2023-07-13T15:30:40;26.70;84.90
5578;DHT22;2811;51.900;10.734;2023-07-13T15:33:12;26.70;84.10
5578;DHT22;2811;51.900;10.734;2023-07-13T15:35:39;26.90;84.80
5578;DHT22;2811;51.900;10.734;2023-07-13T15:38:13;26.90;84.70
5578;DHT22;2811;51.900;10.734;2023-07-13T15:40:42;27.00;83.90
5578;DHT22;2811;51.900;10.734;2023-07-13T15:43:10;27.40;82.40
5578;DHT22;2811;51.900;10.734;2023-07-13T15:45:38;28.40;81.10
5578;DHT22;2811;51.900;10.734;2023-07-13T15:48:16;28.60;78.50
5578;DHT22;2811;51.900;10.734;2023-07-13T15:50:46;27.60;78.90
5578;DHT22;2811;51.900;10.734;2023-07-13T15:53:15;26.50;82.30
5578;DHT22;2811;51.900;10.734;2023-07-13T15:55:45;26.30;84.10
5578;DHT22;2811;51.900;10.734;2023-07-13T15:58:12;26.00;83.60